createdAt,value
2019-03-04T00:01:36.734Z,2.60
2019-03-04T00:04:09.096Z,2.40
2019-03-04T00:06:38.466Z,2.53
2019-03-04T00:09:08.310Z,1.77
2019-03-04T00:11:37.588Z,2.57
2019-03-04T00:14:07.041Z,2.40
2019-03-04T00:16:36.766Z,2.73
2019-03-04T00:19:06.115Z,2.53
2019-03-04T00:21:35.397Z,1.93
2019-03-04T00:24:05.720Z,2.33
2019-03-04T00:26:34.966Z,2.00
2019-03-04T00:29:04.295Z,2.57
2019-03-04T00:31:34.357Z,2.33
2019-03-04T00:34:06.751Z,2.60
2019-03-04T00:36:36.039Z,1.90
2019-03-04T00:39:07.900Z,2.43
2019-03-04T00:41:37.152Z,2.10
2019-03-04T00:44:06.785Z,2.00
2019-03-04T00:46:36.103Z,2.40
2019-03-04T00:49:05.378Z,2.27
2019-03-04T00:51:34.982Z,1.97
2019-03-04T00:54:04.889Z,2.37
2019-03-04T00:56:34.146Z,2.23
2019-03-04T00:59:04.822Z,2.07
2019-03-04T01:01:34.119Z,1.93
2019-03-04T01:04:05.981Z,2.30
2019-03-04T01:06:37.710Z,2.20
2019-03-04T01:09:09.767Z,2.30
2019-03-04T01:11:38.999Z,2.17
2019-03-04T01:14:08.668Z,2.63
2019-03-04T01:16:37.903Z,2.07
2019-03-04T01:19:07.152Z,2.47
2019-03-04T01:21:36.820Z,2.50
2019-03-04T01:24:09.159Z,2.50
2019-03-04T01:26:38.413Z,2.23
2019-03-04T01:29:07.978Z,1.83
2019-03-04T01:31:37.204Z,2.20
2019-03-04T01:34:07.327Z,1.80
2019-03-04T01:36:36.925Z,2.17
2019-03-04T01:39:07.030Z,2.30
2019-03-04T01:41:36.400Z,1.90
2019-03-04T01:44:09.134Z,2.40
2019-03-04T01:46:38.384Z,2.27
2019-03-04T01:49:07.663Z,2.30
2019-03-04T01:51:38.255Z,2.30
2019-03-04T01:54:07.494Z,2.23
2019-03-04T01:56:36.802Z,1.70
2019-03-04T01:59:06.578Z,1.80
2019-03-04T02:01:35.807Z,2.17
2019-03-04T02:04:06.262Z,2.40
2019-03-04T02:06:35.546Z,2.20
2019-03-04T02:09:06.047Z,2.50
2019-03-04T02:11:35.710Z,2.53
2019-03-04T02:14:05.600Z,2.00
2019-03-04T02:16:34.854Z,2.20
2019-03-04T02:19:04.581Z,2.07
2019-03-04T02:21:33.866Z,1.97
2019-03-04T02:24:23.244Z,1.50
2019-03-04T02:26:53.609Z,4.33
2019-03-04T02:29:22.835Z,2.90
2019-03-04T02:31:52.096Z,1.90
2019-03-04T02:34:21.698Z,1.73
2019-03-04T02:36:51.825Z,1.60
2019-03-04T02:39:21.057Z,1.70
2019-03-04T02:41:50.812Z,1.67
2019-03-04T02:44:20.049Z,1.70
2019-03-04T02:46:49.314Z,1.27
2019-03-04T02:49:18.955Z,1.60
2019-03-04T02:51:48.216Z,1.33
2019-03-04T02:54:17.427Z,1.93
2019-03-04T02:56:47.070Z,1.50
2019-03-04T02:59:16.314Z,1.90
2019-03-04T03:01:45.681Z,1.90
2019-03-04T03:04:14.935Z,2.10
2019-03-04T03:06:44.171Z,1.70
2019-03-04T03:09:14.623Z,1.80
2019-03-04T03:11:43.912Z,1.77
2019-03-04T03:14:13.230Z,1.80
2019-03-04T03:16:42.863Z,1.90
2019-03-04T03:19:12.141Z,2.80
2019-03-04T03:21:41.379Z,1.90
2019-03-04T03:24:10.948Z,2.47
2019-03-04T03:26:40.224Z,3.23
2019-03-04T03:29:09.462Z,2.70
2019-03-04T03:31:39.244Z,2.43
2019-03-04T03:34:08.510Z,3.13
2019-03-04T03:36:38.000Z,2.70
2019-03-04T03:39:09.262Z,3.10
2019-03-04T03:41:38.552Z,2.40
2019-03-04T03:44:07.831Z,3.10
2019-03-04T03:46:37.564Z,2.23
2019-03-04T03:49:06.800Z,2.40
2019-03-04T03:51:36.029Z,2.70
2019-03-04T03:54:06.075Z,3.20
2019-03-04T03:56:35.363Z,3.20
2019-03-04T03:59:04.644Z,2.67
2019-03-04T04:01:34.220Z,2.30
2019-03-04T04:04:05.969Z,3.07
2019-03-04T04:06:35.235Z,3.10
2019-03-04T04:09:06.313Z,2.27
2019-03-04T04:11:35.582Z,5.40
2019-03-04T04:14:07.685Z,1.90
2019-03-04T04:16:37.367Z,2.50
2019-03-04T04:19:06.660Z,1.90
2019-03-04T04:21:36.083Z,1.83
2019-03-04T04:24:08.719Z,2.13
2019-03-04T04:26:38.094Z,2.30
2019-03-04T04:29:09.929Z,2.57
2019-03-04T04:31:39.872Z,2.47
2019-03-04T04:34:09.173Z,2.03
2019-03-04T04:36:38.457Z,2.43
2019-03-04T04:39:08.687Z,2.50
2019-03-04T04:41:38.812Z,2.13
2019-03-04T04:44:08.053Z,2.40
2019-03-04T04:46:54.253Z,2.57
2019-03-04T04:49:24.481Z,2.60
2019-03-04T04:51:53.750Z,3.00
2019-03-04T04:54:23.397Z,2.80
2019-03-04T04:56:52.663Z,2.73
2019-03-04T04:59:21.906Z,3.07
2019-03-04T05:01:51.576Z,3.20
2019-03-04T05:04:20.815Z,4.60
2019-03-04T05:06:50.165Z,4.70
2019-03-04T05:09:19.846Z,4.00
2019-03-04T05:11:49.093Z,13.27
2019-03-04T05:14:21.318Z,3.90
2019-03-04T05:16:51.052Z,4.30
2019-03-04T05:19:20.324Z,3.60
2019-03-04T05:21:49.634Z,3.00
2019-03-04T05:24:19.371Z,2.60
2019-03-04T05:26:48.655Z,2.50
2019-03-04T05:29:17.915Z,3.30
2019-03-04T05:34:24.346Z,2.57
2019-03-04T05:36:53.608Z,2.60
2019-03-04T05:39:23.425Z,2.90
2019-03-04T05:41:53.689Z,2.53
2019-03-04T05:44:22.990Z,2.60
2019-03-04T05:46:52.511Z,2.70
2019-03-04T05:49:21.809Z,2.30
2019-03-04T05:51:51.290Z,2.17
2019-03-04T05:54:20.897Z,2.10
2019-03-04T05:56:50.206Z,2.10
2019-03-04T05:59:20.214Z,2.63
2019-03-04T06:02:07.081Z,2.80
2019-03-04T06:04:36.393Z,2.23
2019-03-04T06:07:09.396Z,2.50
2019-03-04T06:09:38.735Z,2.07
2019-03-04T06:12:08.210Z,2.00
2019-03-04T06:14:37.621Z,2.30
2019-03-04T06:17:07.056Z,2.40
2019-03-04T06:19:36.692Z,1.80
2019-03-04T06:22:08.799Z,2.50
2019-03-04T06:27:19.317Z,2.07
2019-03-04T06:29:48.611Z,2.57
2019-03-04T06:32:19.462Z,2.77
2019-03-04T06:34:49.462Z,2.80
2019-03-04T06:37:18.711Z,2.70
2019-03-04T06:39:48.445Z,3.00
2019-03-04T06:42:18.624Z,2.60
2019-03-04T06:44:47.850Z,2.43
2019-03-04T06:47:18.563Z,2.17
2019-03-04T06:49:48.127Z,2.97
2019-03-04T06:52:17.410Z,2.47
2019-03-04T06:55:05.808Z,1.97
2019-03-04T06:57:41.298Z,2.13
2019-03-04T07:00:35.468Z,2.40
2019-03-04T07:03:09.595Z,1.90
2019-03-04T07:05:48.157Z,2.30
2019-03-04T07:09:11.385Z,2.03
2019-03-04T07:11:51.270Z,1.93
2019-03-04T07:14:20.549Z,1.70
2019-03-04T07:16:51.371Z,1.40
2019-03-04T07:19:21.908Z,1.30
2019-03-04T07:21:51.466Z,2.07
2019-03-04T07:24:21.163Z,1.57
2019-03-04T07:26:50.459Z,1.53
2019-03-04T07:29:20.365Z,1.07
2019-03-04T07:31:50.088Z,1.70
2019-03-04T07:34:21.827Z,1.00
2019-03-04T07:36:51.159Z,0.83
2019-03-04T07:39:21.198Z,1.57
2019-03-04T07:41:58.107Z,0.90
2019-03-04T07:44:28.386Z,0.90
2019-03-04T07:46:57.690Z,1.17
2019-03-04T07:49:27.039Z,1.30
2019-03-04T07:51:57.259Z,1.20
2019-03-04T07:54:26.980Z,1.07
2019-03-04T07:56:56.266Z,1.20
2019-03-04T07:59:26.100Z,0.90
2019-03-04T08:01:57.921Z,0.90
2019-03-04T08:04:27.289Z,1.20
2019-03-04T08:07:32.424Z,1.60
2019-03-04T08:10:48.775Z,0.97
2019-03-04T08:13:27.951Z,0.90
2019-03-04T08:15:58.620Z,0.87
2019-03-04T08:18:28.030Z,0.60
2019-03-04T08:20:59.833Z,0.77
2019-03-04T08:23:29.168Z,0.80
2019-03-04T08:25:58.915Z,0.60
2019-03-04T08:28:28.199Z,0.67
2019-03-04T08:30:57.495Z,0.60
2019-03-04T08:33:27.378Z,0.70
2019-03-04T08:35:56.667Z,0.73
2019-03-04T08:38:25.996Z,0.60
2019-03-04T08:40:55.666Z,0.80
2019-03-04T08:43:24.952Z,1.03
2019-03-04T08:45:55.566Z,0.80
2019-03-04T08:48:25.282Z,0.90
2019-03-04T08:50:54.520Z,1.00
2019-03-04T08:53:23.806Z,0.70
2019-03-04T08:55:53.503Z,1.03
2019-03-04T08:58:22.768Z,0.80
2019-03-04T09:00:52.027Z,1.20
2019-03-04T09:03:33.915Z,1.07
2019-03-04T09:06:07.723Z,1.20
2019-03-04T09:08:37.039Z,1.27
2019-03-04T09:11:17.769Z,1.37
2019-03-04T09:13:47.292Z,0.70
2019-03-04T09:16:18.371Z,0.80
2019-03-04T09:18:47.726Z,0.60
2019-03-04T09:21:17.389Z,0.70
2019-03-04T09:23:46.658Z,0.80
2019-03-04T09:26:20.049Z,0.60
2019-03-04T09:28:50.981Z,1.07
2019-03-04T09:31:20.320Z,0.90
2019-03-04T09:33:49.787Z,0.60
2019-03-04T09:36:19.437Z,0.87
2019-03-04T09:38:48.818Z,1.00
2019-03-04T09:41:18.171Z,0.90
2019-03-04T09:43:47.713Z,0.90
2019-03-04T09:46:17.007Z,1.53
2019-03-04T09:48:47.211Z,1.20
2019-03-04T09:51:24.008Z,1.10
2019-03-04T09:53:47.858Z,0.90
2019-03-04T09:56:17.239Z,1.17
2019-03-04T09:58:46.985Z,0.80
2019-03-04T10:01:20.569Z,0.90
2019-03-04T10:04:05.660Z,0.70
2019-03-04T10:07:02.007Z,1.50
2019-03-04T10:10:21.074Z,0.70
2019-03-04T10:13:17.129Z,0.83
2019-03-04T10:16:02.791Z,1.10
2019-03-04T10:18:57.599Z,1.10
2019-03-04T10:21:50.512Z,0.93
2019-03-04T10:24:58.712Z,1.20
2019-03-04T10:28:02.317Z,1.00
2019-03-04T10:31:01.866Z,1.23
2019-03-04T10:34:08.121Z,1.10
2019-03-04T10:37:18.567Z,1.00
2019-03-04T10:40:27.279Z,1.00
2019-03-04T10:43:42.540Z,1.47
2019-03-04T10:46:43.620Z,1.00
2019-03-04T10:49:13.181Z,1.10
2019-03-04T10:51:43.519Z,0.97
2019-03-04T10:54:14.006Z,1.13
2019-03-04T10:56:43.968Z,1.90
2019-03-04T10:59:13.544Z,1.60
2019-03-04T11:01:43.419Z,1.10
2019-03-04T11:04:13.151Z,0.90
2019-03-04T11:06:43.179Z,2.43
2019-03-04T11:09:12.583Z,1.67
2019-03-04T11:11:42.525Z,1.40
2019-03-04T11:14:12.149Z,1.30
2019-03-04T11:16:41.791Z,1.03
2019-03-04T11:19:11.421Z,1.50
2019-03-04T11:21:40.723Z,2.20
2019-03-04T11:24:11.566Z,1.33
2019-03-04T11:26:41.678Z,1.20
2019-03-04T11:29:13.247Z,1.07
2019-03-04T11:31:42.897Z,1.27
2019-03-04T11:34:14.632Z,0.83
2019-03-04T11:36:43.941Z,1.50
2019-03-04T11:39:46.428Z,1.40
2019-03-04T11:42:18.972Z,1.77
2019-03-04T11:44:48.490Z,1.40
2019-03-04T11:47:19.537Z,1.10
2019-03-04T11:49:49.127Z,1.00
2019-03-04T11:52:18.365Z,2.33
2019-03-04T11:54:48.756Z,1.27
2019-03-04T11:57:18.337Z,1.30
2019-03-04T11:59:47.620Z,1.63
2019-03-04T12:02:21.441Z,1.70
2019-03-04T12:04:51.180Z,1.50
2019-03-04T12:07:20.480Z,1.20
2019-03-04T12:10:00.340Z,1.40
2019-03-04T12:12:29.766Z,1.53
2019-03-04T12:14:59.430Z,1.47
2019-03-04T12:17:28.716Z,1.60
2019-03-04T12:19:58.655Z,1.60
2019-03-04T12:22:31.009Z,1.10
2019-03-04T12:25:00.388Z,1.37
2019-03-04T12:27:53.415Z,1.60
2019-03-04T12:30:24.291Z,1.80
2019-03-04T12:32:54.299Z,1.50
2019-03-04T12:35:23.675Z,1.37
2019-03-04T12:37:53.082Z,1.50
2019-03-04T12:40:22.730Z,1.20
2019-03-04T12:42:52.281Z,1.30
2019-03-04T12:45:21.664Z,2.10
2019-03-04T12:47:51.473Z,1.50
2019-03-04T12:50:24.019Z,1.53
2019-03-04T12:52:56.137Z,1.50
2019-03-04T12:55:25.700Z,1.37
2019-03-04T12:57:55.870Z,1.40
2019-03-04T13:00:25.239Z,1.87
2019-03-04T13:02:57.855Z,1.10
2019-03-04T13:05:27.843Z,1.40
2019-03-04T13:07:57.673Z,1.40
2019-03-04T13:10:27.264Z,1.53
2019-03-04T13:12:56.566Z,1.30
2019-03-04T13:15:26.009Z,1.20
2019-03-04T13:17:55.596Z,1.00
2019-03-04T13:20:24.967Z,1.23
2019-03-04T13:22:54.247Z,0.90
2019-03-04T13:25:23.836Z,1.00
2019-03-04T13:27:53.428Z,1.07
2019-03-04T13:30:23.076Z,1.10
2019-03-04T13:32:52.675Z,1.10
2019-03-04T13:35:24.824Z,1.03
2019-03-04T13:37:53.730Z,1.73
2019-03-04T13:40:23.405Z,1.20
2019-03-04T13:42:52.768Z,1.40
2019-03-04T13:45:22.200Z,1.37
2019-03-04T13:47:51.507Z,1.80
2019-03-04T13:50:22.046Z,1.50
2019-03-04T13:52:51.929Z,1.40
2019-03-04T13:55:21.187Z,1.80
2019-03-04T13:57:50.493Z,1.43
2019-03-04T14:00:21.089Z,1.60
2019-03-04T14:02:50.818Z,1.70
2019-03-04T14:05:21.645Z,1.70
2019-03-04T14:07:51.001Z,1.60
2019-03-04T14:10:20.579Z,1.53
2019-03-04T14:12:50.154Z,1.37
2019-03-04T14:15:22.601Z,1.53
2019-03-04T14:17:52.024Z,1.57
2019-03-04T14:20:21.386Z,1.23
2019-03-04T14:22:57.589Z,0.97
2019-03-04T14:25:22.039Z,1.10
2019-03-04T14:27:51.315Z,0.80
2019-03-04T14:30:20.640Z,1.30
2019-03-04T14:32:50.268Z,1.00
2019-03-04T14:35:19.704Z,1.50
2019-03-04T14:37:49.264Z,1.20
2019-03-04T14:40:18.970Z,1.00
2019-03-04T14:42:48.526Z,0.97
2019-03-04T14:45:18.751Z,1.20
2019-03-04T14:47:48.699Z,1.23
2019-03-04T14:50:18.196Z,1.30
2019-03-04T14:52:47.542Z,1.50
2019-03-04T14:55:18.419Z,1.70
2019-03-04T14:57:47.867Z,1.23
2019-03-04T15:00:19.610Z,1.80
2019-03-04T15:02:50.366Z,1.00
2019-03-04T15:05:20.000Z,1.00
2019-03-04T15:07:49.678Z,0.90
2019-03-04T15:10:19.305Z,0.87
2019-03-04T15:12:48.911Z,0.53
2019-03-04T15:15:18.672Z,0.67
2019-03-04T15:17:50.010Z,0.67
2019-03-04T15:20:20.777Z,0.70
2019-03-04T15:22:50.161Z,0.70
2019-03-04T15:25:22.467Z,0.60
2019-03-04T15:27:52.165Z,0.40
2019-03-04T15:30:21.771Z,0.50
2019-03-04T15:32:51.438Z,0.60
2019-03-04T15:35:21.008Z,0.50
2019-03-04T15:37:51.386Z,0.40
2019-03-04T15:40:21.176Z,0.60
2019-03-04T15:42:51.107Z,0.70
2019-03-04T15:45:30.326Z,0.70
2019-03-04T15:48:00.713Z,0.73
2019-03-04T15:50:30.518Z,0.70
2019-03-04T15:53:00.303Z,0.60
2019-03-04T15:55:30.498Z,0.60
2019-03-04T15:58:00.462Z,1.10
2019-03-04T16:00:30.287Z,0.63
2019-03-04T16:02:59.987Z,0.60
2019-03-04T16:05:31.372Z,0.70
2019-03-04T16:08:07.650Z,0.50
2019-03-04T16:10:34.372Z,0.50
2019-03-04T16:13:04.289Z,0.60
2019-03-04T16:15:36.968Z,0.40
2019-03-04T16:18:07.108Z,0.60
2019-03-04T16:20:36.945Z,0.70
2019-03-04T16:23:06.807Z,0.40
2019-03-04T16:25:37.036Z,0.57
2019-03-04T16:28:15.984Z,0.80
2019-03-04T16:30:47.948Z,0.93
2019-03-04T16:33:17.723Z,4.20
2019-03-04T16:35:47.757Z,0.60
2019-03-04T16:38:17.741Z,0.63
2019-03-04T16:40:47.553Z,0.50
2019-03-04T16:43:17.391Z,0.57
2019-03-04T16:45:47.656Z,0.83
2019-03-04T16:48:17.418Z,0.60
2019-03-04T16:50:47.267Z,0.80
2019-03-04T16:53:18.295Z,1.20
2019-03-04T16:55:48.030Z,0.83
2019-03-04T16:58:18.350Z,0.60
2019-03-04T17:00:50.268Z,0.90
2019-03-04T17:03:20.096Z,0.70
2019-03-04T17:05:49.979Z,0.87
2019-03-04T17:08:20.861Z,0.73
2019-03-04T17:10:50.553Z,0.90
2019-03-04T17:13:20.477Z,0.90
2019-03-04T17:15:50.759Z,0.93
2019-03-04T17:18:20.501Z,1.03
2019-03-04T17:20:50.258Z,0.80
2019-03-04T17:23:20.218Z,1.10
2019-03-04T17:25:50.039Z,0.77
2019-03-04T17:28:19.837Z,0.80
2019-03-04T17:30:49.965Z,0.60
2019-03-04T17:33:19.797Z,1.00
2019-03-04T17:35:49.528Z,0.80
2019-03-04T17:38:19.579Z,0.87
2019-03-04T17:40:49.511Z,0.90
2019-03-04T17:43:20.792Z,0.90
2019-03-04T17:45:50.882Z,1.17
2019-03-04T17:48:20.593Z,0.83
2019-03-04T17:50:50.419Z,1.20
2019-03-04T17:53:21.055Z,0.93
2019-03-04T17:55:50.853Z,1.10
2019-03-04T17:58:20.715Z,0.73
2019-03-04T18:00:54.409Z,1.03
2019-03-04T18:03:24.336Z,1.00
2019-03-04T18:05:54.497Z,1.27
2019-03-04T18:08:24.231Z,1.17
2019-03-04T18:10:55.023Z,1.23
2019-03-04T18:13:25.152Z,1.43
2019-03-04T18:15:55.185Z,1.27
2019-03-04T18:18:27.540Z,1.80
2019-03-04T18:20:57.856Z,2.07
2019-03-04T18:23:30.555Z,1.90
2019-03-04T18:26:22.816Z,1.70
2019-03-04T18:29:36.760Z,1.60
2019-03-04T18:32:59.895Z,2.00
2019-03-04T18:36:37.804Z,1.83
2019-03-04T18:39:43.360Z,2.50
2019-03-04T18:43:02.959Z,2.70
2019-03-04T18:46:08.084Z,1.90
2019-03-04T18:48:53.715Z,2.50
2019-03-04T18:51:24.097Z,2.13
2019-03-04T18:53:55.588Z,2.03
2019-03-04T18:56:25.342Z,2.07
2019-03-04T18:58:55.452Z,2.00
2019-03-04T19:01:25.354Z,1.80
2019-03-04T19:03:55.164Z,2.30
2019-03-04T19:06:25.474Z,2.00
2019-03-04T19:08:55.228Z,2.27
2019-03-04T19:11:25.239Z,2.67
2019-03-04T19:13:57.514Z,1.90
2019-03-04T19:16:27.610Z,1.63
2019-03-04T19:18:57.531Z,2.07
2019-03-04T19:21:28.585Z,1.60
2019-03-04T19:23:58.407Z,1.70
2019-03-04T19:26:28.123Z,1.83
2019-03-04T19:28:58.378Z,1.97
2019-03-04T19:31:28.258Z,1.53
2019-03-04T19:33:58.428Z,1.50
2019-03-04T19:36:30.457Z,1.43
2019-03-04T19:39:00.291Z,1.37
2019-03-04T19:41:30.144Z,1.30
2019-03-04T19:44:00.357Z,1.33
2019-03-04T19:46:30.132Z,1.47
2019-03-04T19:49:01.509Z,1.20
2019-03-04T19:51:31.804Z,1.00
2019-03-04T19:54:04.971Z,1.23
2019-03-04T19:56:35.115Z,0.97
2019-03-04T19:59:05.409Z,1.33
2019-03-04T20:01:35.097Z,1.20
2019-03-04T20:04:06.376Z,1.30
2019-03-04T20:06:36.237Z,1.43
2019-03-04T20:09:10.120Z,1.80
2019-03-04T20:11:44.561Z,1.73
2019-03-04T20:14:14.779Z,1.67
2019-03-04T20:16:47.108Z,1.60
2019-03-04T20:19:17.036Z,1.80
2019-03-04T20:21:48.409Z,1.23
2019-03-04T20:24:18.466Z,1.53
2019-03-04T20:26:49.346Z,1.70
2019-03-04T20:29:19.178Z,1.77
2019-03-04T20:31:49.400Z,1.23
2019-03-04T20:34:19.600Z,1.60
2019-03-04T20:36:49.401Z,2.03
2019-03-04T20:39:20.109Z,1.90
2019-03-04T20:41:50.355Z,2.27
2019-03-04T20:44:20.757Z,2.00
2019-03-04T20:46:50.856Z,2.10
2019-03-04T20:49:21.009Z,1.90
2019-03-04T20:51:52.787Z,2.20
2019-03-04T20:54:23.184Z,2.07
2019-03-04T20:56:53.137Z,2.20
2019-03-04T20:59:22.886Z,2.17
2019-03-04T21:01:53.110Z,2.37
2019-03-04T21:04:23.923Z,2.67
2019-03-04T21:06:54.535Z,3.00
2019-03-04T21:09:24.937Z,2.53
2019-03-04T21:11:55.094Z,2.30
2019-03-04T21:14:26.173Z,2.90
2019-03-04T21:16:57.105Z,2.70
2019-03-04T21:19:27.965Z,3.30
2019-03-04T21:21:58.626Z,3.67
2019-03-04T21:24:31.360Z,3.40
2019-03-04T21:27:02.740Z,3.27
2019-03-04T21:30:18.935Z,3.17
2019-03-04T21:33:00.245Z,2.60
2019-03-04T21:36:06.045Z,1.90
2019-03-04T21:38:36.596Z,1.60
2019-03-04T21:41:25.423Z,1.40
2019-03-04T21:44:50.096Z,1.73
2019-03-04T21:47:28.250Z,1.40
2019-03-04T21:49:59.018Z,1.30
2019-03-04T21:52:59.299Z,1.30
2019-03-04T21:55:40.062Z,1.20
2019-03-04T21:58:09.930Z,1.63
2019-03-04T22:00:41.346Z,0.80
2019-03-04T22:03:36.810Z,0.80
2019-03-04T22:06:07.707Z,0.67
2019-03-04T22:08:38.080Z,0.60
2019-03-04T22:11:08.084Z,0.70
2019-03-04T22:13:39.047Z,0.80
2019-03-04T22:16:08.654Z,0.80
2019-03-04T22:18:38.778Z,0.73
2019-03-04T22:21:16.575Z,0.90
2019-03-04T22:23:41.538Z,0.70
2019-03-04T22:26:11.831Z,1.10
2019-03-04T22:28:42.031Z,1.17
2019-03-04T22:31:12.101Z,1.10
2019-03-04T22:33:41.897Z,0.70
2019-03-04T22:36:16.548Z,1.50
2019-03-04T22:38:47.350Z,0.90
2019-03-04T22:41:17.245Z,1.10
2019-03-04T22:43:47.707Z,0.80
2019-03-04T22:46:17.141Z,1.10
2019-03-04T22:48:46.653Z,1.20
2019-03-04T22:51:16.081Z,1.20
2019-03-04T22:53:45.754Z,1.17
2019-03-04T22:56:18.700Z,1.30
2019-03-04T22:58:51.135Z,0.93
2019-03-04T23:01:43.640Z,1.10
2019-03-04T23:04:34.319Z,1.20
2019-03-04T23:07:09.516Z,1.30
2019-03-04T23:09:45.002Z,1.10
2019-03-04T23:12:21.209Z,1.20
2019-03-04T23:14:51.270Z,1.03
2019-03-04T23:17:26.739Z,1.60
2019-03-04T23:20:06.980Z,1.43
2019-03-04T23:22:37.549Z,1.30
2019-03-04T23:25:09.235Z,1.23
2019-03-04T23:27:38.981Z,1.20
2019-03-04T23:30:11.206Z,2.00
2019-03-04T23:32:40.687Z,1.40
2019-03-04T23:35:10.539Z,2.00
2019-03-04T23:37:40.291Z,1.47
2019-03-04T23:40:10.369Z,1.60
2019-03-04T23:42:40.244Z,1.27
2019-03-04T23:45:10.782Z,1.43
2019-03-04T23:47:40.722Z,1.23
2019-03-04T23:50:15.857Z,1.50
2019-03-04T23:52:46.606Z,1.23
2019-03-04T23:55:16.416Z,2.27
2019-03-04T23:57:45.875Z,2.70
